sensor_id;sensor_type;location;lat;lon;timestamp;temperature;humidity
1602;DHT22;794;48.592;9.634;2022-09-02T00:01:28;13.40;1.00
1602;DHT22;794;48.592;9.634;2022-09-02T00:03:59;12.90;1.00
1602;DHT22;794;48.592;9.634;2022-09-02T00:06:28;12.90;1.00
1602;DHT22;794;48.592;9.634;2022-09-02T00:08:56;13.00;1.00
1602;DHT22;794;48.592;9.634;2022-09-02T00:11:25;13.00;1.00
1602;DHT22;794;48.592;9.634;2022-09-02T00:13:56;12.90;1.00
1602;DHT22;794;48.592;9.634;2022-09-02T00:16:23;13.40;1.00
1602;DHT22;794;48.592;9.634;2022-09-02T00:18:51;13.10;1.00
1602;DHT22;794;48.592;9.634;2022-09-02T00:21:24;12.50;1.00
1602;DHT22;794;48.592;9.634;2022-09-02T00:23:52;12.60;1.00
1602;DHT22;794;48.592;9.634;2022-09-02T00:26:19;12.40;1.00
1602;DHT22;794;48.592;9.634;2022-09-02T00:28:47;12.40;1.00
1602;DHT22;794;48.592;9.634;2022-09-02T00:31:14;13.20;1.00
1602;DHT22;794;48.592;9.634;2022-09-02T00:33:42;12.50;1.00
1602;DHT22;794;48.592;9.634;2022-09-02T00:36:09;12.60;1.00
1602;DHT22;794;48.592;9.634;2022-09-02T00:38:38;12.70;1.00
1602;DHT22;794;48.592;9.634;2022-09-02T00:41:08;12.60;1.00
1602;DHT22;794;48.592;9.634;2022-09-02T00:43:44;12.70;1.00
1602;DHT22;794;48.592;9.634;2022-09-02T00:46:16;12.30;1.00
1602;DHT22;794;48.592;9.634;2022-09-02T00:48:48;12.40;1.00
1602;DHT22;794;48.592;9.634;2022-09-02T00:51:19;12.50;1.00
1602;DHT22;794;48.592;9.634;2022-09-02T00:53:49;12.80;1.00
1602;DHT22;794;48.592;9.634;2022-09-02T00:56:23;12.80;1.00
1602;DHT22;794;48.592;9.634;2022-09-02T00:58:57;12.80;1.00
1602;DHT22;794;48.592;9.634;2022-09-02T01:01:28;12.60;1.00
1602;DHT22;794;48.592;9.634;2022-09-02T01:03:58;13.70;1.00
1602;DHT22;794;48.592;9.634;2022-09-02T01:06:27;12.50;1.00
1602;DHT22;794;48.592;9.634;2022-09-02T01:09:02;14.40;1.00
1602;DHT22;794;48.592;9.634;2022-09-02T01:11:38;12.40;1.00
1602;DHT22;794;48.592;9.634;2022-09-02T01:14:08;12.40;1.00
1602;DHT22;794;48.592;9.634;2022-09-02T01:16:42;12.10;1.00
1602;DHT22;794;48.592;9.634;2022-09-02T01:19:19;12.40;1.00
1602;DHT22;794;48.592;9.634;2022-09-02T01:21:50;12.40;1.00
1602;DHT22;794;48.592;9.634;2022-09-02T01:24:18;12.30;1.00
1602;DHT22;794;48.592;9.634;2022-09-02T01:26:45;12.20;1.00
1602;DHT22;794;48.592;9.634;2022-09-02T01:29:15;12.50;1.00
1602;DHT22;794;48.592;9.634;2022-09-02T01:31:46;12.30;1.00
1602;DHT22;794;48.592;9.634;2022-09-02T01:34:13;12.60;1.00
1602;DHT22;794;48.592;9.634;2022-09-02T01:36:41;12.70;1.00
1602;DHT22;794;48.592;9.634;2022-09-02T01:39:11;12.60;1.00
1602;DHT22;794;48.592;9.634;2022-09-02T01:41:39;12.40;1.00
1602;DHT22;794;48.592;9.634;2022-09-02T01:44:06;12.70;1.00
1602;DHT22;794;48.592;9.634;2022-09-02T01:46:36;12.40;1.00
1602;DHT22;794;48.592;9.634;2022-09-02T01:49:04;12.50;1.00
1602;DHT22;794;48.592;9.634;2022-09-02T01:51:34;12.80;1.00
1602;DHT22;794;48.592;9.634;2022-09-02T01:54:01;12.80;1.00
1602;DHT22;794;48.592;9.634;2022-09-02T01:56:29;12.80;1.00
1602;DHT22;794;48.592;9.634;2022-09-02T01:58:59;12.70;1.00
1602;DHT22;794;48.592;9.634;2022-09-02T02:01:27;12.40;1.00
1602;DHT22;794;48.592;9.634;2022-09-02T02:03:54;12.50;1.00
1602;DHT22;794;48.592;9.634;2022-09-02T02:06:21;12.60;1.00
1602;DHT22;794;48.592;9.634;2022-09-02T02:08:48;12.50;1.00
1602;DHT22;794;48.592;9.634;2022-09-02T02:11:21;12.40;1.00
1602;DHT22;794;48.592;9.634;2022-09-02T02:13:50;12.20;1.00
1602;DHT22;794;48.592;9.634;2022-09-02T02:16:17;12.50;1.00
1602;DHT22;794;48.592;9.634;2022-09-02T02:18:44;12.20;1.00
1602;DHT22;794;48.592;9.634;2022-09-02T02:21:11;12.20;1.00
1602;DHT22;794;48.592;9.634;2022-09-02T02:23:39;11.90;1.00
1602;DHT22;794;48.592;9.634;2022-09-02T02:26:09;12.10;1.00
1602;DHT22;794;48.592;9.634;2022-09-02T02:28:36;12.10;1.00
1602;DHT22;794;48.592;9.634;2022-09-02T02:31:05;12.10;1.00
1602;DHT22;794;48.592;9.634;2022-09-02T02:33:32;11.80;1.00
1602;DHT22;794;48.592;9.634;2022-09-02T02:36:00;11.80;1.00
1602;DHT22;794;48.592;9.634;2022-09-02T02:38:29;12.00;1.00
1602;DHT22;794;48.592;9.634;2022-09-02T02:41:00;11.70;1.00
1602;DHT22;794;48.592;9.634;2022-09-02T02:43:31;11.70;1.00
1602;DHT22;794;48.592;9.634;2022-09-02T02:46:03;11.30;1.00
1602;DHT22;794;48.592;9.634;2022-09-02T02:48:38;11.80;1.00
1602;DHT22;794;48.592;9.634;2022-09-02T02:51:05;11.60;1.00
1602;DHT22;794;48.592;9.634;2022-09-02T02:53:33;11.50;1.00
1602;DHT22;794;48.592;9.634;2022-09-02T02:56:02;11.60;1.00
1602;DHT22;794;48.592;9.634;2022-09-02T02:58:30;11.50;1.00
1602;DHT22;794;48.592;9.634;2022-09-02T03:01:01;11.10;1.00
1602;DHT22;794;48.592;9.634;2022-09-02T03:03:31;12.10;1.00
1602;DHT22;794;48.592;9.634;2022-09-02T03:06:01;11.80;1.00
1602;DHT22;794;48.592;9.634;2022-09-02T03:08:28;11.40;1.00
1602;DHT22;794;48.592;9.634;2022-09-02T03:10:55;11.40;1.00
1602;DHT22;794;48.592;9.634;2022-09-02T03:13:23;11.30;1.00
1602;DHT22;794;48.592;9.634;2022-09-02T03:15:51;11.50;1.00
1602;DHT22;794;48.592;9.634;2022-09-02T03:18:18;11.50;1.00
1602;DHT22;794;48.592;9.634;2022-09-02T03:20:47;11.40;1.00
1602;DHT22;794;48.592;9.634;2022-09-02T03:23:20;11.50;1.00
1602;DHT22;794;48.592;9.634;2022-09-02T03:25:47;11.40;1.00
1602;DHT22;794;48.592;9.634;2022-09-02T03:28:15;11.60;1.00
1602;DHT22;794;48.592;9.634;2022-09-02T03:30:54;11.40;1.00
1602;DHT22;794;48.592;9.634;2022-09-02T03:33:24;11.20;1.00
1602;DHT22;794;48.592;9.634;2022-09-02T03:35:51;11.30;1.00
1602;DHT22;794;48.592;9.634;2022-09-02T03:38:21;11.40;1.00
1602;DHT22;794;48.592;9.634;2022-09-02T03:40:48;11.50;1.00
1602;DHT22;794;48.592;9.634;2022-09-02T03:44:16;11.20;1.00
1602;DHT22;794;48.592;9.634;2022-09-02T03:49:23;11.40;1.00
1602;DHT22;794;48.592;9.634;2022-09-02T03:51:52;11.20;1.00
1602;DHT22;794;48.592;9.634;2022-09-02T03:54:24;11.30;1.00
1602;DHT22;794;48.592;9.634;2022-09-02T03:56:51;11.00;1.00
1602;DHT22;794;48.592;9.634;2022-09-02T03:59:18;11.00;1.00
1602;DHT22;794;48.592;9.634;2022-09-02T04:01:55;11.10;1.00
1602;DHT22;794;48.592;9.634;2022-09-02T04:04:23;10.80;1.00
1602;DHT22;794;48.592;9.634;2022-09-02T04:06:50;11.00;1.00
1602;DHT22;794;48.592;9.634;2022-09-02T04:09:17;11.10;1.00
1602;DHT22;794;48.592;9.634;2022-09-02T04:11:49;11.10;1.00
1602;DHT22;794;48.592;9.634;2022-09-02T04:14:16;10.50;1.00
1602;DHT22;794;48.592;9.634;2022-09-02T04:23:15;10.80;1.00
1602;DHT22;794;48.592;9.634;2022-09-02T04:25:42;10.80;1.00
1602;DHT22;794;48.592;9.634;2022-09-02T04:28:11;10.30;1.00
1602;DHT22;794;48.592;9.634;2022-09-02T04:30:39;10.60;1.00
1602;DHT22;794;48.592;9.634;2022-09-02T04:33:06;11.00;1.00
1602;DHT22;794;48.592;9.634;2022-09-02T04:35:38;10.60;1.00
1602;DHT22;794;48.592;9.634;2022-09-02T04:38:15;10.50;1.00
1602;DHT22;794;48.592;9.634;2022-09-02T04:40:46;10.60;1.00
1602;DHT22;794;48.592;9.634;2022-09-02T04:43:15;10.20;1.00
1602;DHT22;794;48.592;9.634;2022-09-02T04:45:45;10.50;1.00
1602;DHT22;794;48.592;9.634;2022-09-02T04:48:12;10.60;1.00
1602;DHT22;794;48.592;9.634;2022-09-02T04:50:40;10.80;1.00
1602;DHT22;794;48.592;9.634;2022-09-02T04:53:25;10.70;1.00
1602;DHT22;794;48.592;9.634;2022-09-02T04:55:52;10.70;1.00
1602;DHT22;794;48.592;9.634;2022-09-02T04:58:24;10.70;1.00
1602;DHT22;794;48.592;9.634;2022-09-02T05:00:52;10.60;1.00
1602;DHT22;794;48.592;9.634;2022-09-02T05:03:22;10.60;1.00
1602;DHT22;794;48.592;9.634;2022-09-02T05:05:58;10.50;1.00
1602;DHT22;794;48.592;9.634;2022-09-02T05:08:25;10.50;1.00
1602;DHT22;794;48.592;9.634;2022-09-02T05:10:52;10.80;1.00
1602;DHT22;794;48.592;9.634;2022-09-02T05:16:06;10.30;1.00
1602;DHT22;794;48.592;9.634;2022-09-02T05:21:03;10.70;1.00
1602;DHT22;794;48.592;9.634;2022-09-02T05:23:30;10.90;1.00
1602;DHT22;794;48.592;9.634;2022-09-02T05:26:02;10.80;1.00
1602;DHT22;794;48.592;9.634;2022-09-02T05:31:02;10.80;1.00
1602;DHT22;794;48.592;9.634;2022-09-02T05:33:32;10.60;1.00
1602;DHT22;794;48.592;9.634;2022-09-02T05:36:02;10.80;1.00
1602;DHT22;794;48.592;9.634;2022-09-02T05:38:29;11.10;1.00
1602;DHT22;794;48.592;9.634;2022-09-02T05:40:56;11.30;1.00
1602;DHT22;794;48.592;9.634;2022-09-02T05:43:24;11.00;1.00
1602;DHT22;794;48.592;9.634;2022-09-02T05:45:51;11.10;1.00
1602;DHT22;794;48.592;9.634;2022-09-02T05:48:18;11.30;1.00
1602;DHT22;794;48.592;9.634;2022-09-02T05:51:05;11.40;1.00
1602;DHT22;794;48.592;9.634;2022-09-02T05:53:32;11.60;1.00
1602;DHT22;794;48.592;9.634;2022-09-02T05:56:02;11.60;1.00
1602;DHT22;794;48.592;9.634;2022-09-02T05:58:29;11.60;1.00
1602;DHT22;794;48.592;9.634;2022-09-02T06:00:57;11.80;1.00
1602;DHT22;794;48.592;9.634;2022-09-02T06:03:26;12.00;1.00
1602;DHT22;794;48.592;9.634;2022-09-02T06:05:56;12.00;1.00
1602;DHT22;794;48.592;9.634;2022-09-02T06:08:29;12.30;1.00
1602;DHT22;794;48.592;9.634;2022-09-02T06:10:57;11.50;1.00
1602;DHT22;794;48.592;9.634;2022-09-02T06:13:25;12.40;1.00
1602;DHT22;794;48.592;9.634;2022-09-02T06:15:52;12.70;1.00
1602;DHT22;794;48.592;9.634;2022-09-02T06:18:23;12.30;1.00
1602;DHT22;794;48.592;9.634;2022-09-02T06:20:52;12.30;1.00
1602;DHT22;794;48.592;9.634;2022-09-02T06:23:20;12.80;1.00
1602;DHT22;794;48.592;9.634;2022-09-02T06:25:50;12.70;1.00
1602;DHT22;794;48.592;9.634;2022-09-02T06:30:47;13.00;1.00
1602;DHT22;794;48.592;9.634;2022-09-02T06:33:17;13.20;1.00
1602;DHT22;794;48.592;9.634;2022-09-02T06:35:48;13.70;1.00
1602;DHT22;794;48.592;9.634;2022-09-02T06:38:17;13.40;1.00
1602;DHT22;794;48.592;9.634;2022-09-02T06:40:51;13.40;1.00
1602;DHT22;794;48.592;9.634;2022-09-02T06:43:19;13.30;1.00
1602;DHT22;794;48.592;9.634;2022-09-02T06:45:49;13.80;1.00
1602;DHT22;794;48.592;9.634;2022-09-02T06:48:19;13.70;1.00
1602;DHT22;794;48.592;9.634;2022-09-02T06:50:49;13.90;1.00
1602;DHT22;794;48.592;9.634;2022-09-02T06:55:45;14.00;1.00
1602;DHT22;794;48.592;9.634;2022-09-02T06:58:13;14.10;1.00
1602;DHT22;794;48.592;9.634;2022-09-02T07:00:40;14.20;1.00
1602;DHT22;794;48.592;9.634;2022-09-02T07:03:09;14.50;1.00
1602;DHT22;794;48.592;9.634;2022-09-02T07:06:02;14.60;1.00
1602;DHT22;794;48.592;9.634;2022-09-02T07:08:34;15.50;1.00
1602;DHT22;794;48.592;9.634;2022-09-02T07:11:16;17.50;1.00
1602;DHT22;794;48.592;9.634;2022-09-02T07:13:45;19.50;1.00
1602;DHT22;794;48.592;9.634;2022-09-02T07:16:13;21.40;1.00
1602;DHT22;794;48.592;9.634;2022-09-02T07:18:40;23.60;1.00
1602;DHT22;794;48.592;9.634;2022-09-02T07:21:10;25.30;1.00
1602;DHT22;794;48.592;9.634;2022-09-02T07:23:37;26.40;1.00
1602;DHT22;794;48.592;9.634;2022-09-02T07:26:10;27.60;1.00
1602;DHT22;794;48.592;9.634;2022-09-02T07:28:37;29.00;1.00
1602;DHT22;794;48.592;9.634;2022-09-02T07:31:09;28.90;1.00
1602;DHT22;794;48.592;9.634;2022-09-02T07:33:36;30.30;1.00
1602;DHT22;794;48.592;9.634;2022-09-02T07:36:04;29.30;1.00
1602;DHT22;794;48.592;9.634;2022-09-02T07:38:32;30.50;1.00
1602;DHT22;794;48.592;9.634;2022-09-02T07:41:04;30.50;1.00
1602;DHT22;794;48.592;9.634;2022-09-02T07:43:34;31.60;1.00
1602;DHT22;794;48.592;9.634;2022-09-02T07:46:13;30.40;1.00
1602;DHT22;794;48.592;9.634;2022-09-02T07:48:43;29.00;1.00
1602;DHT22;794;48.592;9.634;2022-09-02T07:51:17;29.90;1.00
1602;DHT22;794;48.592;9.634;2022-09-02T07:53:49;27.50;1.00
1602;DHT22;794;48.592;9.634;2022-09-02T07:56:20;30.60;1.00
1602;DHT22;794;48.592;9.634;2022-09-02T07:58:47;30.90;1.00
1602;DHT22;794;48.592;9.634;2022-09-02T08:01:19;31.30;1.00
1602;DHT22;794;48.592;9.634;2022-09-02T08:03:47;30.90;1.00
1602;DHT22;794;48.592;9.634;2022-09-02T08:06:14;31.80;1.00
1602;DHT22;794;48.592;9.634;2022-09-02T08:08:43;30.60;1.00
1602;DHT22;794;48.592;9.634;2022-09-02T08:11:10;31.00;1.00
1602;DHT22;794;48.592;9.634;2022-09-02T08:17:43;26.00;1.00
1602;DHT22;794;48.592;9.634;2022-09-02T08:24:04;24.20;1.00
1602;DHT22;794;48.592;9.634;2022-09-02T08:29:02;25.20;1.00
1602;DHT22;794;48.592;9.634;2022-09-02T08:31:29;26.10;1.00
1602;DHT22;794;48.592;9.634;2022-09-02T08:33:59;26.20;1.00
1602;DHT22;794;48.592;9.634;2022-09-02T08:36:26;25.20;1.00
1602;DHT22;794;48.592;9.634;2022-09-02T08:41:23;25.30;1.00
1602;DHT22;794;48.592;9.634;2022-09-02T08:43:52;24.50;1.00
1602;DHT22;794;48.592;9.634;2022-09-02T08:46:22;25.00;1.00
1602;DHT22;794;48.592;9.634;2022-09-02T08:48:57;25.00;1.00
1602;DHT22;794;48.592;9.634;2022-09-02T08:51:33;24.80;1.00
1602;DHT22;794;48.592;9.634;2022-09-02T08:54:05;23.80;1.00
1602;DHT22;794;48.592;9.634;2022-09-02T08:59:02;24.50;1.00
1602;DHT22;794;48.592;9.634;2022-09-02T09:01:41;24.40;1.00
1602;DHT22;794;48.592;9.634;2022-09-02T09:04:23;24.20;1.00
1602;DHT22;794;48.592;9.634;2022-09-02T09:07:11;24.10;1.00
1602;DHT22;794;48.592;9.634;2022-09-02T09:09:52;24.20;1.00
1602;DHT22;794;48.592;9.634;2022-09-02T09:12:31;23.90;1.00
1602;DHT22;794;48.592;9.634;2022-09-02T09:15:11;24.60;1.00
1602;DHT22;794;48.592;9.634;2022-09-02T09:17:50;24.40;1.00
1602;DHT22;794;48.592;9.634;2022-09-02T09:20:20;21.40;1.00
1602;DHT22;794;48.592;9.634;2022-09-02T09:22:56;22.00;1.00
1602;DHT22;794;48.592;9.634;2022-09-02T09:32:54;22.50;1.00
1602;DHT22;794;48.592;9.634;2022-09-02T09:35:25;22.30;1.00
1602;DHT22;794;48.592;9.634;2022-09-02T09:37:54;22.80;1.00
1602;DHT22;794;48.592;9.634;2022-09-02T09:40:29;22.80;1.00
1602;DHT22;794;48.592;9.634;2022-09-02T09:42:58;22.40;1.00
1602;DHT22;794;48.592;9.634;2022-09-02T09:45:42;22.80;1.00
1602;DHT22;794;48.592;9.634;2022-09-02T09:48:19;22.00;1.00
1602;DHT22;794;48.592;9.634;2022-09-02T09:51:09;22.20;1.00
1602;DHT22;794;48.592;9.634;2022-09-02T09:53:38;22.20;1.00
1602;DHT22;794;48.592;9.634;2022-09-02T09:56:27;20.90;1.00
1602;DHT22;794;48.592;9.634;2022-09-02T09:58:55;20.90;1.00
1602;DHT22;794;48.592;9.634;2022-09-02T10:01:27;21.80;1.00
1602;DHT22;794;48.592;9.634;2022-09-02T10:04:03;21.90;1.00
1602;DHT22;794;48.592;9.634;2022-09-02T10:06:39;21.20;1.00
1602;DHT22;794;48.592;9.634;2022-09-02T10:09:32;21.00;1.00
1602;DHT22;794;48.592;9.634;2022-09-02T10:12:00;20.90;1.00
1602;DHT22;794;48.592;9.634;2022-09-02T10:14:35;19.60;1.00
1602;DHT22;794;48.592;9.634;2022-09-02T10:17:18;20.40;1.00
1602;DHT22;794;48.592;9.634;2022-09-02T10:19:54;20.20;1.00
1602;DHT22;794;48.592;9.634;2022-09-02T10:22:49;20.50;1.00
1602;DHT22;794;48.592;9.634;2022-09-02T10:25:28;20.50;1.00
1602;DHT22;794;48.592;9.634;2022-09-02T10:28:09;20.90;1.00
1602;DHT22;794;48.592;9.634;2022-09-02T10:31:03;18.90;1.00
1602;DHT22;794;48.592;9.634;2022-09-02T10:33:38;20.70;1.00
1602;DHT22;794;48.592;9.634;2022-09-02T10:36:19;20.60;1.00
1602;DHT22;794;48.592;9.634;2022-09-02T10:39:04;20.40;1.00
1602;DHT22;794;48.592;9.634;2022-09-02T10:41:40;20.20;1.00
1602;DHT22;794;48.592;9.634;2022-09-02T10:44:26;20.20;1.00
1602;DHT22;794;48.592;9.634;2022-09-02T10:46:59;19.90;1.00
1602;DHT22;794;48.592;9.634;2022-09-02T10:49:48;20.70;1.00
1602;DHT22;794;48.592;9.634;2022-09-02T10:52:31;20.10;1.00
1602;DHT22;794;48.592;9.634;2022-09-02T10:55:10;20.10;1.00
1602;DHT22;794;48.592;9.634;2022-09-02T10:57:44;20.10;1.00
1602;DHT22;794;48.592;9.634;2022-09-02T11:00:14;18.40;1.00
1602;DHT22;794;48.592;9.634;2022-09-02T11:02:46;20.10;1.00
1602;DHT22;794;48.592;9.634;2022-09-02T11:05:20;20.20;1.00
1602;DHT22;794;48.592;9.634;2022-09-02T11:07:54;19.60;1.00
1602;DHT22;794;48.592;9.634;2022-09-02T11:10:30;19.90;1.00
1602;DHT22;794;48.592;9.634;2022-09-02T11:13:05;19.70;1.00
1602;DHT22;794;48.592;9.634;2022-09-02T11:15:43;20.50;1.00
1602;DHT22;794;48.592;9.634;2022-09-02T11:18:17;19.80;1.00
1602;DHT22;794;48.592;9.634;2022-09-02T11:20:53;20.50;1.00
1602;DHT22;794;48.592;9.634;2022-09-02T11:23:33;20.10;1.00
1602;DHT22;794;48.592;9.634;2022-09-02T11:26:06;20.10;1.00
1602;DHT22;794;48.592;9.634;2022-09-02T11:28:40;20.00;1.00
1602;DHT22;794;48.592;9.634;2022-09-02T11:31:13;20.00;1.00
1602;DHT22;794;48.592;9.634;2022-09-02T11:33:51;20.00;1.00
1602;DHT22;794;48.592;9.634;2022-09-02T11:36:27;20.10;1.00
1602;DHT22;794;48.592;9.634;2022-09-02T11:38:59;20.60;1.00
1602;DHT22;794;48.592;9.634;2022-09-02T11:41:37;20.50;1.00
1602;DHT22;794;48.592;9.634;2022-09-02T11:44:39;20.50;1.00
1602;DHT22;794;48.592;9.634;2022-09-02T11:47:33;20.40;1.00
1602;DHT22;794;48.592;9.634;2022-09-02T11:50:26;18.30;1.00
1602;DHT22;794;48.592;9.634;2022-09-02T11:53:03;20.10;1.00
1602;DHT22;794;48.592;9.634;2022-09-02T11:55:47;19.70;1.00
1602;DHT22;794;48.592;9.634;2022-09-02T11:58:31;20.00;1.00
1602;DHT22;794;48.592;9.634;2022-09-02T12:01:04;19.70;1.00
1602;DHT22;794;48.592;9.634;2022-09-02T12:03:32;19.70;1.00
1602;DHT22;794;48.592;9.634;2022-09-02T12:06:10;20.40;1.00
1602;DHT22;794;48.592;9.634;2022-09-02T12:09:21;20.00;1.00
1602;DHT22;794;48.592;9.634;2022-09-02T12:15:08;19.90;1.00
1602;DHT22;794;48.592;9.634;2022-09-02T12:18:12;20.00;1.00
1602;DHT22;794;48.592;9.634;2022-09-02T12:21:12;20.20;1.00
1602;DHT22;794;48.592;9.634;2022-09-02T12:24:30;20.50;1.00
1602;DHT22;794;48.592;9.634;2022-09-02T12:27:29;20.20;1.00
1602;DHT22;794;48.592;9.634;2022-09-02T12:30:04;20.40;1.00
1602;DHT22;794;48.592;9.634;2022-09-02T12:33:13;20.30;1.00
1602;DHT22;794;48.592;9.634;2022-09-02T12:35:59;20.20;1.00
1602;DHT22;794;48.592;9.634;2022-09-02T12:38:40;20.20;1.00
1602;DHT22;794;48.592;9.634;2022-09-02T12:41:18;20.20;1.00
1602;DHT22;794;48.592;9.634;2022-09-02T12:43:55;20.60;1.00
1602;DHT22;794;48.592;9.634;2022-09-02T12:46:43;20.20;1.00
1602;DHT22;794;48.592;9.634;2022-09-02T12:49:32;20.30;1.00
1602;DHT22;794;48.592;9.634;2022-09-02T12:52:07;20.60;1.00
1602;DHT22;794;48.592;9.634;2022-09-02T12:54:52;20.30;1.00
1602;DHT22;794;48.592;9.634;2022-09-02T12:57:37;20.40;1.00
1602;DHT22;794;48.592;9.634;2022-09-02T13:00:25;20.60;1.00
1602;DHT22;794;48.592;9.634;2022-09-02T13:03:10;20.40;1.00
1602;DHT22;794;48.592;9.634;2022-09-02T13:05:53;20.70;1.00
1602;DHT22;794;48.592;9.634;2022-09-02T13:11:59;20.50;1.00
1602;DHT22;794;48.592;9.634;2022-09-02T13:21:28;21.00;1.00
1602;DHT22;794;48.592;9.634;2022-09-02T13:27:27;21.10;1.00
1602;DHT22;794;48.592;9.634;2022-09-02T13:30:10;20.90;1.00
1602;DHT22;794;48.592;9.634;2022-09-02T13:32:44;20.50;1.00
1602;DHT22;794;48.592;9.634;2022-09-02T13:35:29;20.80;1.00
1602;DHT22;794;48.592;9.634;2022-09-02T13:37:58;20.60;1.00
1602;DHT22;794;48.592;9.634;2022-09-02T13:40:33;20.60;1.00
1602;DHT22;794;48.592;9.634;2022-09-02T13:43:24;20.70;1.00
1602;DHT22;794;48.592;9.634;2022-09-02T13:46:01;20.80;1.00
1602;DHT22;794;48.592;9.634;2022-09-02T13:48:36;20.90;1.00
1602;DHT22;794;48.592;9.634;2022-09-02T13:51:11;20.90;1.00
1602;DHT22;794;48.592;9.634;2022-09-02T13:53:52;20.90;1.00
1602;DHT22;794;48.592;9.634;2022-09-02T13:56:25;21.70;1.00
1602;DHT22;794;48.592;9.634;2022-09-02T13:59:00;20.80;1.00
1602;DHT22;794;48.592;9.634;2022-09-02T14:01:43;21.90;1.00
1602;DHT22;794;48.592;9.634;2022-09-02T14:04:14;21.30;1.00
1602;DHT22;794;48.592;9.634;2022-09-02T14:06:44;20.90;1.00
1602;DHT22;794;48.592;9.634;2022-09-02T14:09:25;20.80;1.00
1602;DHT22;794;48.592;9.634;2022-09-02T14:11:56;20.90;1.00
1602;DHT22;794;48.592;9.634;2022-09-02T14:14:24;20.80;1.00
1602;DHT22;794;48.592;9.634;2022-09-02T14:17:19;21.00;1.00
1602;DHT22;794;48.592;9.634;2022-09-02T14:20:21;21.00;1.00
1602;DHT22;794;48.592;9.634;2022-09-02T14:22:53;20.90;1.00
1602;DHT22;794;48.592;9.634;2022-09-02T14:25:24;20.00;1.00
1602;DHT22;794;48.592;9.634;2022-09-02T14:27:56;21.30;1.00
1602;DHT22;794;48.592;9.634;2022-09-02T14:30:30;21.60;1.00
1602;DHT22;794;48.592;9.634;2022-09-02T14:33:39;21.00;1.00
1602;DHT22;794;48.592;9.634;2022-09-02T14:36:08;21.30;1.00
1602;DHT22;794;48.592;9.634;2022-09-02T14:38:49;21.50;1.00
1602;DHT22;794;48.592;9.634;2022-09-02T14:41:23;20.80;1.00
1602;DHT22;794;48.592;9.634;2022-09-02T14:43:53;20.90;1.00
1602;DHT22;794;48.592;9.634;2022-09-02T14:46:26;20.80;1.00
1602;DHT22;794;48.592;9.634;2022-09-02T14:49:00;20.90;1.00
1602;DHT22;794;48.592;9.634;2022-09-02T14:51:35;20.90;1.00
1602;DHT22;794;48.592;9.634;2022-09-02T14:54:06;20.90;1.00
1602;DHT22;794;48.592;9.634;2022-09-02T14:56:46;21.00;1.00
1602;DHT22;794;48.592;9.634;2022-09-02T14:59:16;20.70;1.00
1602;DHT22;794;48.592;9.634;2022-09-02T15:01:46;20.70;1.00
1602;DHT22;794;48.592;9.634;2022-09-02T15:04:15;20.70;1.00
1602;DHT22;794;48.592;9.634;2022-09-02T15:06:55;21.10;1.00
1602;DHT22;794;48.592;9.634;2022-09-02T15:09:24;20.80;1.00
1602;DHT22;794;48.592;9.634;2022-09-02T15:11:55;21.10;1.00
1602;DHT22;794;48.592;9.634;2022-09-02T15:14:24;20.90;1.00
1602;DHT22;794;48.592;9.634;2022-09-02T15:16:52;20.80;1.00
1602;DHT22;794;48.592;9.634;2022-09-02T15:19:28;20.90;1.00
1602;DHT22;794;48.592;9.634;2022-09-02T15:21:59;20.70;1.00
1602;DHT22;794;48.592;9.634;2022-09-02T15:24:33;20.80;1.00
1602;DHT22;794;48.592;9.634;2022-09-02T15:27:09;20.80;1.00
1602;DHT22;794;48.592;9.634;2022-09-02T15:29:39;20.80;1.00
1602;DHT22;794;48.592;9.634;2022-09-02T15:32:07;21.40;1.00
1602;DHT22;794;48.592;9.634;2022-09-02T15:34:38;20.80;1.00
1602;DHT22;794;48.592;9.634;2022-09-02T15:37:05;20.60;1.00
1602;DHT22;794;48.592;9.634;2022-09-02T15:39:33;21.60;1.00
1602;DHT22;794;48.592;9.634;2022-09-02T15:42:03;20.70;1.00
1602;DHT22;794;48.592;9.634;2022-09-02T15:44:30;21.50;1.00
1602;DHT22;794;48.592;9.634;2022-09-02T15:47:04;20.70;1.00
1602;DHT22;794;48.592;9.634;2022-09-02T15:49:31;21.50;1.00
1602;DHT22;794;48.592;9.634;2022-09-02T15:51:58;21.10;1.00
1602;DHT22;794;48.592;9.634;2022-09-02T15:54:30;20.70;1.00
1602;DHT22;794;48.592;9.634;2022-09-02T15:56:58;21.00;1.00
1602;DHT22;794;48.592;9.634;2022-09-02T15:59:28;20.70;1.00
1602;DHT22;794;48.592;9.634;2022-09-02T16:01:56;20.40;1.00
1602;DHT22;794;48.592;9.634;2022-09-02T16:04:24;21.20;1.00
1602;DHT22;794;48.592;9.634;2022-09-02T16:06:51;20.50;1.00
1602;DHT22;794;48.592;9.634;2022-09-02T16:09:21;20.50;1.00
1602;DHT22;794;48.592;9.634;2022-09-02T16:11:50;20.60;1.00
1602;DHT22;794;48.592;9.634;2022-09-02T16:14:25;21.30;1.00
1602;DHT22;794;48.592;9.634;2022-09-02T16:16:54;20.30;1.00
1602;DHT22;794;48.592;9.634;2022-09-02T16:19:30;20.50;1.00
1602;DHT22;794;48.592;9.634;2022-09-02T16:22:04;20.60;1.00
1602;DHT22;794;48.592;9.634;2022-09-02T16:24:31;20.80;1.00
1602;DHT22;794;48.592;9.634;2022-09-02T16:27:04;20.60;1.00
1602;DHT22;794;48.592;9.634;2022-09-02T16:29:32;20.30;1.00
1602;DHT22;794;48.592;9.634;2022-09-02T16:32:05;20.50;1.00
1602;DHT22;794;48.592;9.634;2022-09-02T16:34:32;20.40;1.00
1602;DHT22;794;48.592;9.634;2022-09-02T16:39:29;19.70;1.00
1602;DHT22;794;48.592;9.634;2022-09-02T16:41:56;19.80;1.00
1602;DHT22;794;48.592;9.634;2022-09-02T16:44:28;19.80;1.00
1602;DHT22;794;48.592;9.634;2022-09-02T16:47:00;19.40;1.00
1602;DHT22;794;48.592;9.634;2022-09-02T16:49:28;19.40;1.00
1602;DHT22;794;48.592;9.634;2022-09-02T16:51:55;19.50;1.00
1602;DHT22;794;48.592;9.634;2022-09-02T16:54:22;20.20;1.00
1602;DHT22;794;48.592;9.634;2022-09-02T16:59:24;19.20;1.00
1602;DHT22;794;48.592;9.634;2022-09-02T17:01:52;21.90;1.00
1602;DHT22;794;48.592;9.634;2022-09-02T17:04:21;19.70;1.00
1602;DHT22;794;48.592;9.634;2022-09-02T17:06:52;19.10;1.00
1602;DHT22;794;48.592;9.634;2022-09-02T17:09:21;19.20;1.00
1602;DHT22;794;48.592;9.634;2022-09-02T17:11:54;19.00;1.00
1602;DHT22;794;48.592;9.634;2022-09-02T17:14:22;18.70;1.00
1602;DHT22;794;48.592;9.634;2022-09-02T17:16:50;18.80;1.00
1602;DHT22;794;48.592;9.634;2022-09-02T17:19:20;18.40;1.00
1602;DHT22;794;48.592;9.634;2022-09-02T17:21:51;18.90;1.00
1602;DHT22;794;48.592;9.634;2022-09-02T17:24:21;18.30;1.00
1602;DHT22;794;48.592;9.634;2022-09-02T17:26:50;18.10;1.00
1602;DHT22;794;48.592;9.634;2022-09-02T17:29:20;18.10;1.00
1602;DHT22;794;48.592;9.634;2022-09-02T17:31:50;17.90;1.00
1602;DHT22;794;48.592;9.634;2022-09-02T17:34:34;17.70;1.00
1602;DHT22;794;48.592;9.634;2022-09-02T17:37:05;17.40;1.00
1602;DHT22;794;48.592;9.634;2022-09-02T17:39:33;17.40;1.00
1602;DHT22;794;48.592;9.634;2022-09-02T17:42:00;17.10;1.00
1602;DHT22;794;48.592;9.634;2022-09-02T17:44:31;17.20;1.00
1602;DHT22;794;48.592;9.634;2022-09-02T17:47:01;19.00;1.00
1602;DHT22;794;48.592;9.634;2022-09-02T17:49:29;17.00;1.00
1602;DHT22;794;48.592;9.634;2022-09-02T17:51:57;16.60;1.00
1602;DHT22;794;48.592;9.634;2022-09-02T17:54:32;16.50;1.00
1602;DHT22;794;48.592;9.634;2022-09-02T17:57:20;17.20;1.00
1602;DHT22;794;48.592;9.634;2022-09-02T18:00:04;16.50;1.00
1602;DHT22;794;48.592;9.634;2022-09-02T18:05:49;16.70;1.00
1602;DHT22;794;48.592;9.634;2022-09-02T18:11:15;14.80;1.00
1602;DHT22;794;48.592;9.634;2022-09-02T18:13:54;16.10;1.00
1602;DHT22;794;48.592;9.634;2022-09-02T18:16:28;15.60;1.00
1602;DHT22;794;48.592;9.634;2022-09-02T18:19:12;15.70;1.00
1602;DHT22;794;48.592;9.634;2022-09-02T18:21:52;15.50;1.00
1602;DHT22;794;48.592;9.634;2022-09-02T18:24:45;16.00;1.00
1602;DHT22;794;48.592;9.634;2022-09-02T18:27:28;15.50;1.00